Time;durP1;ratioP1;P1;durP2;ratioP2;P2;SDS_P1;SDS_P2;PMS_P1;PMS_P2;Temp;Humidity;BMP_temperature;BMP_pressure;BME280_temperature;BME280_humidity;BME280_pressure;Samples;Min_cycle;Max_cycle;Signal;HPM_P1;HPM_P2
2023/01/14 00:01:39;;;;;;;;;72.33;54.00;;;;;4.59;100.00;99974.22;6311754;20;3645734;-59
2023/01/14 00:04:09;;;;;;;;;71.67;52.67;;;;;4.60;100.00;99970.63;6307292;20;3639969;-60
2023/01/14 00:06:38;;;;;;;;;75.00;55.67;;;;;4.33;100.00;99969.72;6313919;20;3652413;-59
2023/01/14 00:09:13;;;;;;;;;77.33;58.00;;;;;4.32;100.00;99967.13;6313058;20;3634621;-60
2023/01/14 00:11:51;;;;;;;;;76.00;55.00;;;;;4.44;100.00;99971.19;6316574;20;3653371;-59
2023/01/14 00:14:30;;;;;;;;;72.00;55.33;;;;;4.33;100.00;99966.19;6315503;20;3642374;-61
2023/01/14 00:17:01;;;;;;;;;67.33;50.67;;;;;4.47;100.00;99966.63;6313825;20;3642069;-59
2023/01/14 00:19:28;;;;;;;;;53.50;33.00;;;;;4.29;100.00;99961.88;6316799;20;2824236;-60
2023/01/14 00:21:58;;;;;;;;;79.33;58.33;;;;;4.36;100.00;99961.66;6281370;20;3645099;-60
2023/01/14 00:24:28;;;;;;;;;79.33;59.67;;;;;4.15;100.00;99957.00;6314863;20;3637786;-59
2023/01/14 00:26:58;;;;;;;;;68.00;51.33;;;;;4.27;100.00;99955.78;6313585;20;2872246;-60
2023/01/14 00:29:33;;;;;;;;;79.00;56.67;;;;;4.28;100.00;99957.50;6314273;20;3658618;-60
2023/01/14 00:32:05;;;;;;;;;76.67;55.00;;;;;4.29;100.00;99957.47;6277942;20;3649231;-59
2023/01/14 00:34:36;;;;;;;;;78.00;58.00;;;;;4.37;100.00;99955.44;6317012;20;3604447;-60
2023/01/14 00:37:07;;;;;;;;;80.67;57.67;;;;;4.30;100.00;99953.00;6317024;20;3636717;-59
2023/01/14 00:39:37;;;;;;;;;76.00;59.33;;;;;4.36;100.00;99958.13;6315301;20;3620027;-60
2023/01/14 00:42:06;;;;;;;;;76.33;59.33;;;;;4.16;100.00;99954.31;6314276;20;3628447;-60
2023/01/14 00:44:36;;;;;;;;;77.33;59.67;;;;;4.23;100.00;99959.44;6313299;20;3608574;-60
2023/01/14 00:47:05;;;;;;;;;74.33;56.00;;;;;4.30;100.00;99964.50;6315062;20;3629411;-60
2023/01/14 00:49:35;;;;;;;;;81.00;54.67;;;;;4.11;100.00;99973.97;6315813;20;3650242;-60
2023/01/14 00:52:04;;;;;;;;;75.33;55.00;;;;;4.07;100.00;99978.50;6315392;20;3638810;-60
2023/01/14 00:54:34;;;;;;;;;80.33;58.67;;;;;4.43;100.00;99975.63;6313497;20;3636714;-60
2023/01/14 00:57:04;;;;;;;;;79.33;57.33;;;;;4.52;100.00;99977.13;6309932;20;3626453;-59
2023/01/14 00:59:33;;;;;;;;;75.33;55.33;;;;;4.33;100.00;99974.19;6313091;20;3633662;-60
2023/01/14 01:02:04;;;;;;;;;71.67;54.00;;;;;4.33;100.00;99974.19;6310423;20;3634799;-60
2023/01/14 01:04:34;;;;;;;;;75.67;54.00;;;;;4.27;100.00;99971.72;6313569;20;3657591;-59
2023/01/14 01:07:05;;;;;;;;;73.33;54.33;;;;;4.28;100.00;99974.31;6313451;20;3642967;-59
2023/01/14 01:09:34;;;;;;;;;69.33;52.33;;;;;4.25;100.00;99977.06;6276662;20;3617969;-60
2023/01/14 01:12:05;;;;;;;;;72.33;55.67;;;;;4.31;100.00;99976.00;6315476;20;3637932;-59
2023/01/14 01:14:35;;;;;;;;;75.00;55.67;;;;;4.30;100.00;99968.97;6312464;20;3652354;-60
2023/01/14 01:17:04;;;;;;;;;75.67;57.33;;;;;4.33;100.00;99974.19;6310453;20;3623169;-59
2023/01/14 01:19:32;;;;;;;;;68.50;47.00;;;;;4.31;100.00;99965.38;6312766;20;2840913;-61
2023/01/14 01:22:01;;;;;;;;;76.67;58.00;;;;;4.13;100.00;99951.75;6281539;20;3620186;-60
2023/01/14 01:24:31;;;;;;;;;77.33;55.00;;;;;4.23;100.00;99957.63;6312619;20;3649257;-59
2023/01/14 01:27:00;;;;;;;;;73.33;53.67;;;;;3.99;100.00;99967.22;6311613;20;3640886;-61
2023/01/14 01:29:30;;;;;;;;;72.00;54.33;;;;;4.20;100.00;99959.53;6312381;20;3638829;-60
2023/01/14 01:31:59;;;;;;;;;77.00;55.67;;;;;4.28;100.00;99952.19;6309210;20;3649228;-60
2023/01/14 01:34:29;;;;;;;;;78.67;55.33;;;;;4.11;100.00;99944.75;6280020;20;3651403;-60
2023/01/14 01:36:58;;;;;;;;;75.67;54.33;;;;;4.19;100.00;99948.03;6275753;20;2885818;-60
2023/01/14 01:39:28;;;;;;;;;63.67;51.33;;;;;4.10;100.00;99948.31;6309376;20;2866077;-61
2023/01/14 01:41:58;;;;;;;;;75.33;53.00;;;;;4.18;100.00;99948.94;6312650;20;3652342;-60
2023/01/14 01:44:27;;;;;;;;;81.67;56.67;;;;;4.00;100.00;99950.38;6312006;20;3655482;-60
2023/01/14 01:46:57;;;;;;;;;78.00;58.00;;;;;4.11;100.00;99952.72;6277583;20;3637803;-59
2023/01/14 01:49:35;;;;;;;;;85.00;60.67;;;;;4.18;100.00;99949.81;6313355;20;3647141;-60
2023/01/14 01:52:25;;;;;;;;;78.00;56.00;;;;;4.10;100.00;99969.56;6309452;20;3651686;-60
2023/01/14 01:55:04;;;;;;;;;76.00;58.00;;;;;4.09;100.00;99955.41;6310808;20;3607506;-60
2023/01/14 01:57:34;;;;;;;;;76.00;54.67;;;;;3.99;100.00;99958.41;6309172;20;3636691;-59
2023/01/14 02:00:09;;;;;;;;;83.67;59.00;;;;;3.97;100.00;99958.44;6307521;20;3652370;-59
2023/01/14 02:02:39;;;;;;;;;77.00;56.67;;;;;4.06;100.00;99960.81;6309071;20;3645051;-60
2023/01/14 02:05:09;;;;;;;;;78.33;57.00;;;;;3.95;100.00;99963.81;6309454;20;3645043;-59
2023/01/14 02:07:38;;;;;;;;;73.33;51.00;;;;;3.92;100.00;99978.94;6309916;20;3637830;-60
2023/01/14 02:10:09;;;;;;;;;82.00;58.67;;;;;3.84;100.00;99975.66;6311987;20;3638909;-60
2023/01/14 02:13:49;;;;;;;;;81.33;60.33;;;;;3.94;100.00;99977.13;6307645;20;3648162;-61
2023/01/14 02:16:59;;;;;;;;;75.67;57.00;;;;;3.88;100.00;99983.50;6308150;20;3639950;-59
2023/01/14 02:20:28;;;;;;;;;79.33;57.00;;;;;3.98;100.00;99992.06;6310893;20;3654410;-60
2023/01/14 02:23:56;;;;;;;;;80.33;56.67;;;;;4.02;100.00;99987.53;6307027;20;3636719;-60
2023/01/14 02:27:03;;;;;;;;;76.50;55.50;;;;;4.05;100.00;99990.94;6311007;20;2846140;-60
2023/01/14 02:29:58;;;;;;;;;74.67;56.00;;;;;4.24;100.00;99998.38;6307917;20;3640918;-60
2023/01/14 02:32:44;;;;;;;;;72.33;53.00;;;;;4.27;100.00;99972.59;6311968;20;3634633;-60
2023/01/14 02:35:31;;;;;;;;;76.33;56.67;;;;;4.18;100.00;99981.69;6314957;20;3630494;-60
2023/01/14 02:38:33;;;;;;;;;77.00;55.67;;;;;4.15;100.00;99984.44;6317737;20;3657581;-61
2023/01/14 02:44:33;;;;;;;;;77.67;57.00;;;;;4.06;100.00;99998.03;6316494;20;2872426;-60
2023/01/14 02:47:16;;;;;;;;;83.00;58.00;;;;;4.22;100.00;99992.25;6314780;20;3648208;-60
2023/01/14 02:49:51;;;;;;;;;76.33;55.00;;;;;4.34;100.00;99978.56;6314315;20;3638777;-59
2023/01/14 02:52:21;;;;;;;;;80.00;59.33;;;;;4.30;100.00;99968.97;6314006;20;3633586;-61
2023/01/14 02:55:03;;;;;;;;;74.00;55.00;;;;;4.17;100.00;99995.91;6317845;20;3650325;-60
2023/01/14 02:57:45;;;;;;;;;75.67;56.00;;;;;4.17;100.00;99995.91;6318706;20;3630505;-60
2023/01/14 03:00:30;;;;;;;;;78.00;57.00;;;;;4.15;100.00;99999.53;6313222;20;3643051;-61
2023/01/14 03:03:53;;;;;;;;;75.67;56.00;;;;;4.02;100.00;99983.06;6313734;20;3632547;-61
2023/01/14 03:07:24;;;;;;;;;75.67;55.33;;;;;4.18;100.00;99996.78;6314440;20;3642996;-60
2023/01/14 03:10:10;;;;;;;;;77.00;52.67;;;;;4.27;100.00;99995.63;6279156;20;3649259;-60
2023/01/14 03:12:54;;;;;;;;;74.00;54.67;;;;;4.31;100.00;100002.59;6315612;20;3627322;-60
2023/01/14 03:15:41;;;;;;;;;78.00;56.67;;;;;4.22;100.00;100003.75;6312053;20;3637814;-61
2023/01/14 03:18:25;;;;;;;;;75.00;56.33;;;;;4.38;100.00;99999.69;6310028;20;3642004;-61
2023/01/14 03:21:04;;;;;;;;;78.33;60.67;;;;;4.43;100.00;100004.88;6313112;20;3627298;-60
2023/01/14 03:24:01;;;;;;;;;73.33;55.00;;;;;4.25;100.00;100008.09;6310885;20;3639998;-60
2023/01/14 03:26:35;;;;;;;;;61.67;49.33;;;;;4.40;100.00;100012.94;6281289;20;2879420;-60
2023/01/14 03:29:14;;;;;;;;;77.67;56.33;;;;;4.41;100.00;100014.69;6312343;20;3656487;-60
2023/01/14 03:31:58;;;;;;;;;78.33;59.00;;;;;4.36;100.00;100012.16;6314061;20;3628408;-59
2023/01/14 03:34:39;;;;;;;;;79.33;62.33;;;;;4.18;100.00;100018.88;6312346;20;2869112;-60
2023/01/14 03:37:15;;;;;;;;;79.67;58.33;;;;;4.22;100.00;100013.50;6312512;20;3647136;-59
2023/01/14 03:39:47;;;;;;;;;80.00;59.67;;;;;4.27;100.00;100019.56;6312048;20;3647912;-60
2023/01/14 03:42:24;;;;;;;;;78.33;56.00;;;;;4.31;100.00;100026.50;6314779;20;3660043;-60
2023/01/14 03:45:23;;;;;;;;;77.33;57.00;;;;;4.48;100.00;100026.00;6275246;20;2859678;-60
2023/01/14 03:47:53;;;;;;;;;74.00;56.33;;;;;4.47;100.00;100030.44;6308817;20;3645232;-60
2023/01/14 03:50:30;;;;;;;;;74.33;56.67;;;;;4.46;100.00;100033.16;6312718;20;3642987;-60
2023/01/14 03:53:08;;;;;;;;;71.33;51.67;;;;;4.51;100.00;100032.09;6314475;20;3642975;-61
2023/01/14 03:56:33;;;;;;;;;74.00;54.00;;;;;4.48;100.00;100034.84;6312521;20;3648357;-60
2023/01/14 03:59:13;;;;;;;;;74.00;55.67;;;;;4.32;100.00;100031.78;6311042;20;3647184;-60
2023/01/14 04:01:52;;;;;;;;;76.00;56.00;;;;;4.24;100.00;100033.81;6311270;20;3651323;-61
2023/01/14 04:04:24;;;;;;;;;80.67;58.67;;;;;4.40;100.00;100034.22;6277087;20;3636752;-60
2023/01/14 04:06:54;;;;;;;;;78.67;58.33;;;;;4.51;100.00;100040.06;6313571;20;3628410;-60
2023/01/14 04:09:23;;;;;;;;;78.00;58.67;;;;;4.54;100.00;100047.06;6312539;20;3621159;-60
2023/01/14 04:11:53;;;;;;;;;80.00;59.00;;;;;4.50;100.00;100053.38;6313180;20;3650320;-59
2023/01/14 04:17:12;;;;;;;;;108.00;82.50;;;;;4.60;100.00;100062.81;6281768;20;3702460;-60
2023/01/14 04:19:41;;;;;;;;;82.00;60.67;;;;;4.68;100.00;100062.59;6281428;20;3636792;-61
2023/01/14 04:22:11;;;;;;;;;75.33;56.00;;;;;4.66;100.00;100069.75;6313472;20;3635740;-60
2023/01/14 04:24:41;;;;;;;;;72.67;54.67;;;;;4.51;100.00;100064.00;6309962;20;3636725;-60
2023/01/14 04:27:11;;;;;;;;;78.67;60.00;;;;;4.33;100.00;100065.41;6311727;20;2880638;-60
2023/01/14 04:29:40;;;;;;;;;85.67;62.00;;;;;4.48;100.00;100069.41;6313352;20;3653633;-59
2023/01/14 04:32:10;;;;;;;;;83.67;61.00;;;;;4.46;100.00;100060.59;6279327;20;3646070;-61
2023/01/14 04:34:39;;;;;;;;;71.67;54.00;;;;;4.56;100.00;100045.25;6316536;20;3631601;-60
2023/01/14 04:37:09;;;;;;;;;67.00;52.67;;;;;4.65;100.00;100068.00;6314132;20;3632568;-60
2023/01/14 04:39:38;;;;;;;;;97.00;73.50;;;;;4.47;100.00;100067.66;6317830;20;4434610;-60
2023/01/14 04:42:28;;;;;;;;;80.00;58.33;;;;;4.58;100.00;100068.22;6310519;20;3653583;-59
2023/01/14 04:45:05;;;;;;;;;88.00;62.67;;;;;4.68;100.00;100070.56;6275129;20;3652334;-60
2023/01/14 04:47:34;;;;;;;;;76.33;59.33;;;;;4.70;100.00;100074.06;6308135;20;3606497;-60
2023/01/14 04:52:53;;;;;;;;;78.00;59.00;;;;;4.56;100.00;100062.06;6310489;20;2757613;-60
2023/01/14 04:55:22;;;;;;;;;99.33;79.00;;;;;4.68;100.00;100062.59;6309057;20;3700266;-60
2023/01/14 04:57:52;;;;;;;;;90.67;70.33;;;;;4.75;100.00;100050.84;6280418;20;3663824;-60
2023/01/14 05:00:21;;;;;;;;;88.67;64.33;;;;;4.70;100.00;100055.44;6276831;20;3661748;-60
2023/01/14 05:02:51;;;;;;;;;90.67;69.67;;;;;4.62;100.00;100045.03;6304389;20;3671194;-59
2023/01/14 05:05:21;;;;;;;;;80.33;59.67;;;;;4.57;100.00;100037.19;6278077;20;3640934;-61
2023/01/14 05:07:50;;;;;;;;;70.67;53.67;;;;;4.60;100.00;100045.06;6310576;20;3636686;-60
2023/01/14 05:10:20;;;;;;;;;85.00;60.67;;;;;4.61;100.00;100049.50;6313733;20;3658570;-62
2023/01/14 05:12:59;;;;;;;;;65.33;50.00;;;;;4.50;100.00;100041.00;6280879;20;3632682;-60
2023/01/14 05:15:37;;;;;;;;;101.33;72.00;;;;;4.47;100.00;100046.38;6306998;20;3683626;-60
2023/01/14 05:18:09;;;;;;;;;88.00;62.00;;;;;4.52;100.00;100055.09;6277817;20;3658618;-61
2023/01/14 05:20:41;;;;;;;;;84.33;59.33;;;;;4.52;100.00;100051.56;6314227;20;3648230;-60
2023/01/14 05:23:16;;;;;;;;;76.33;56.00;;;;;4.63;100.00;100046.78;6276431;20;3651297;-61
2023/01/14 05:25:47;;;;;;;;;66.00;49.00;;;;;4.57;100.00;100052.28;6308273;20;3637796;-60
2023/01/14 05:28:19;;;;;;;;;75.67;55.33;;;;;4.51;100.00;100066.66;6312499;20;3641905;-60
2023/01/14 05:30:49;;;;;;;;;74.67;54.00;;;;;4.54;100.00;100065.69;6310161;20;3625355;-61
2023/01/14 05:33:19;;;;;;;;;68.00;49.00;;;;;4.52;100.00;100070.16;6311729;20;3645073;-59
2023/01/14 05:35:53;;;;;;;;;73.00;49.33;;;;;4.32;100.00;100073.44;6312388;20;3651306;-60
2023/01/14 05:38:24;;;;;;;;;75.33;58.00;;;;;4.24;100.00;100059.50;6308184;20;3600408;-61
2023/01/14 05:40:54;;;;;;;;;91.25;74.75;;;;;4.43;100.00;100079.31;6309250;20;3647336;-60
2023/01/14 05:46:17;;;;;;;;;75.00;53.00;;;;;4.27;100.00;100075.38;6278540;20;3659651;-60
2023/01/14 05:48:47;;;;;;;;;90.00;65.33;;;;;4.42;100.00;100077.56;6278156;20;3658748;-59
2023/01/14 05:51:17;;;;;;;;;87.00;61.00;;;;;4.35;100.00;100084.00;6315263;20;3649238;-62
2023/01/14 05:53:46;;;;;;;;;70.67;54.00;;;;;4.27;100.00;100086.00;6280439;20;2876424;-61
2023/01/14 05:56:16;;;;;;;;;66.00;50.67;;;;;4.39;100.00;100086.47;6314514;20;3636756;-60
2023/01/14 05:58:45;;;;;;;;;75.33;53.33;;;;;4.25;100.00;100077.19;6312443;20;3657612;-61
2023/01/14 06:06:52;;;;;;;;;77.67;55.67;;;;;4.29;100.00;100092.13;6313353;20;3660910;-60
2023/01/14 06:09:22;;;;;;;;;82.33;61.00;;;;;4.21;100.00;100099.44;6312768;20;3645028;-60
2023/01/14 06:12:02;;;;;;;;;75.00;53.33;;;;;4.10;100.00;100100.63;6317409;20;3651388;-60
2023/01/14 06:14:34;;;;;;;;;69.00;50.67;;;;;4.15;100.00;100119.09;6316891;20;3640942;-60
2023/01/14 06:17:08;;;;;;;;;67.67;48.33;;;;;4.14;100.00;100115.59;6313233;20;3653534;-60
2023/01/14 06:19:37;;;;;;;;;64.00;50.00;;;;;4.20;100.00;100121.63;6313175;20;3632574;-59
2023/01/14 06:22:07;;;;;;;;;75.33;54.00;;;;;4.22;100.00;100118.03;6314960;20;3644227;-60
2023/01/14 06:24:37;;;;;;;;;63.67;51.00;;;;;4.04;100.00;100119.41;6317211;20;3635659;-61
2023/01/14 06:27:06;;;;;;;;;64.00;51.00;;;;;4.04;100.00;100114.09;6315064;20;3639912;-60
2023/01/14 06:29:36;;;;;;;;;72.00;54.67;;;;;4.06;100.00;100128.22;6317821;20;3650319;-60
2023/01/14 06:32:05;;;;;;;;;72.00;52.67;;;;;4.22;100.00;100126.00;6317180;20;3634724;-61
2023/01/14 06:34:35;;;;;;;;;83.33;60.67;;;;;4.31;100.00;100119.53;6314246;20;3649202;-60
2023/01/14 06:37:04;;;;;;;;;86.33;62.67;;;;;4.16;100.00;100126.16;6282750;20;3648347;-61
2023/01/14 06:39:34;;;;;;;;;88.33;70.67;;;;;4.25;100.00;100120.59;6317364;20;3655605;-59
2023/01/14 06:42:04;;;;;;;;;80.67;58.00;;;;;4.37;100.00;100116.69;6283322;20;3629941;-60
2023/01/14 06:44:33;;;;;;;;;81.33;58.00;;;;;4.10;100.00;100123.69;6315351;20;3631548;-60
2023/01/14 06:47:03;;;;;;;;;86.75;63.25;;;;;3.95;100.00;100120.53;6316223;20;3650404;-61
2023/01/14 06:49:32;;;;;;;;;83.67;57.33;;;;;4.06;100.00;100135.31;6314006;20;3669023;-60
2023/01/14 06:52:02;;;;;;;;;76.67;57.00;;;;;3.99;100.00;100123.97;6284844;20;3635728;-60
2023/01/14 06:54:32;;;;;;;;;89.00;64.67;;;;;4.10;100.00;100132.50;6315905;20;3657637;-59
2023/01/14 06:57:04;;;;;;;;;95.33;77.67;;;;;4.11;100.00;100126.31;6277833;20;3660802;-60
2023/01/14 06:59:35;;;;;;;;;120.25;102.75;;;;;4.12;100.00;100129.81;6280908;20;4474259;-59
2023/01/14 07:02:05;;;;;;;;;96.00;74.67;;;;;4.27;100.00;100128.53;6281231;20;3652370;-59
2023/01/14 07:04:34;;;;;;;;;68.33;51.00;;;;;4.26;100.00;100138.25;6280957;20;3656511;-60
2023/01/14 07:07:05;;;;;;;;;86.50;62.00;;;;;4.19;100.00;100142.03;6316875;20;3549342;-60
2023/01/14 07:09:34;;;;;;;;;71.33;54.00;;;;;4.22;100.00;100136.63;6312747;20;3629447;-60
2023/01/14 07:12:05;;;;;;;;;64.67;49.00;;;;;4.10;100.00;100143.13;6317758;20;3627355;-60
2023/01/14 07:14:34;;;;;;;;;76.00;56.67;;;;;4.09;100.00;100154.69;6311847;20;3641071;-60
2023/01/14 07:17:04;;;;;;;;;79.00;57.00;;;;;4.14;100.00;100155.44;6314848;20;3658647;-60
2023/01/14 07:19:34;;;;;;;;;67.00;49.00;;;;;4.18;100.00;100156.22;6280168;20;3653413;-59
2023/01/14 07:22:03;;;;;;;;;81.67;59.00;;;;;4.33;100.00;100154.94;6317180;20;3650451;-60
2023/01/14 07:24:33;;;;;;;;;62.00;46.67;;;;;4.31;100.00;100149.63;6317580;20;2869104;-59
2023/01/14 07:27:02;;;;;;;;;62.33;45.00;;;;;4.41;100.00;100158.22;6313268;20;3626357;-59
2023/01/14 07:29:32;;;;;;;;;68.33;47.67;;;;;4.34;100.00;100156.66;6313672;20;3637765;-59
2023/01/14 07:32:01;;;;;;;;;58.50;48.00;;;;;4.31;100.00;100164.72;6316899;20;2858674;-60
2023/01/14 07:34:31;;;;;;;;;61.00;48.33;;;;;4.27;100.00;100176.38;6286501;20;2872225;-60
2023/01/14 07:37:00;;;;;;;;;66.33;50.00;;;;;4.17;100.00;100181.06;6313590;20;3635737;-60
2023/01/14 07:39:30;;;;;;;;;73.67;55.00;;;;;4.14;100.00;100182.00;6312619;20;3649208;-59
2023/01/14 07:41:59;;;;;;;;;74.00;50.33;;;;;4.23;100.00;100180.00;6315596;20;3655725;-60
2023/01/14 07:44:28;;;;;;;;;68.00;51.00;;;;;4.50;100.00;100181.91;6314996;20;2695269;-59
2023/01/14 07:46:58;;;;;;;;;61.33;46.00;;;;;4.38;100.00;100185.78;6313156;20;3627418;-60
2023/01/14 07:49:27;;;;;;;;;64.00;46.00;;;;;4.30;100.00;100193.09;6316905;20;3632567;-60
2023/01/14 07:51:57;;;;;;;;;62.33;46.33;;;;;4.51;100.00;100196.94;6316366;20;3629894;-60
2023/01/14 07:54:26;;;;;;;;;65.67;49.00;;;;;4.40;100.00;100193.72;6313036;20;3652323;-60
2023/01/14 07:56:56;;;;;;;;;74.00;52.67;;;;;4.48;100.00;100205.00;6316710;20;3655543;-60
2023/01/14 07:59:25;;;;;;;;;63.67;45.00;;;;;4.53;100.00;100204.84;6312432;20;2884711;-60
2023/01/14 08:01:55;;;;;;;;;68.33;50.33;;;;;4.47;100.00;100210.34;6316062;20;3649314;-59
2023/01/14 08:04:24;;;;;;;;;56.00;47.00;;;;;4.28;100.00;100204.69;6316995;20;2868110;-60
2023/01/14 08:06:56;;;;;;;;;66.00;50.67;;;;;4.35;100.00;100207.13;6282673;20;3650311;-59
2023/01/14 08:09:27;;;;;;;;;63.67;48.00;;;;;4.51;100.00;100199.59;6315672;20;3627393;-61
2023/01/14 08:11:56;;;;;;;;;67.00;47.67;;;;;4.38;100.00;100200.84;6313176;20;3648659;-62
2023/01/14 08:14:25;;;;;;;;;63.33;49.33;;;;;4.48;100.00;100197.03;6313251;20;3623320;-60
2023/01/14 08:16:55;;;;;;;;;63.33;49.00;;;;;4.35;100.00;100196.50;6316787;20;3619098;-60
2023/01/14 08:19:24;;;;;;;;;56.33;42.67;;;;;4.70;100.00;100207.03;6314334;20;2864873;-61
2023/01/14 08:21:54;;;;;;;;;66.33;50.67;;;;;4.61;100.00;100202.88;6313443;20;3632579;-60
2023/01/14 08:24:23;;;;;;;;;63.00;50.33;;;;;4.34;100.00;100209.81;6317271;20;3635733;-60
2023/01/14 08:26:53;;;;;;;;;59.67;44.67;;;;;4.52;100.00;100214.63;6315379;20;3631594;-61
2023/01/14 08:29:23;;;;;;;;;68.67;50.00;;;;;4.30;100.00;100201.06;6313383;20;3646868;-60
2023/01/14 08:31:54;;;;;;;;;62.33;46.67;;;;;4.27;100.00;100200.28;6313251;20;2873276;-61
2023/01/14 08:34:25;;;;;;;;;64.50;50.00;;;;;4.66;100.00;100205.38;6316137;20;2866009;-60
2023/01/14 08:36:54;;;;;;;;;64.67;48.00;;;;;4.50;100.00;100211.16;6282097;20;3617976;-60
2023/01/14 08:39:24;;;;;;;;;86.33;65.00;;;;;4.37;100.00;100213.28;6309578;20;3658582;-60
2023/01/14 08:41:54;;;;;;;;;92.33;73.00;;;;;4.32;100.00;100201.03;6281511;20;3662576;-60
2023/01/14 08:44:23;;;;;;;;;64.00;49.00;;;;;4.60;100.00;100196.66;6280184;20;2876471;-60
2023/01/14 08:46:53;;;;;;;;;74.67;54.33;;;;;4.61;100.00;100198.41;6311727;20;3635802;-61
2023/01/14 08:49:23;;;;;;;;;71.33;52.67;;;;;4.62;100.00;100200.16;6311769;20;3643002;-61
2023/01/14 08:51:56;;;;;;;;;62.33;48.00;;;;;4.66;100.00;100213.34;6315041;20;3635689;-60
2023/01/14 08:54:25;;;;;;;;;66.00;50.67;;;;;4.95;100.00;100210.72;6316708;20;3636827;-60
2023/01/14 08:56:56;;;;;;;;;64.33;49.00;;;;;5.13;100.00;100214.59;6314459;20;3625278;-60
2023/01/14 08:59:26;;;;;;;;;68.00;50.33;;;;;5.14;100.00;100204.84;6310660;20;3626427;-60
2023/01/14 09:01:54;;;;;;;;;56.50;46.50;;;;;5.52;100.00;100210.75;6314811;20;2860686;-61
2023/01/14 09:04:25;;;;;;;;;64.67;49.33;;;;;5.38;100.00;100214.72;6283749;20;3631644;-61
2023/01/14 09:18:07;;;;;;;;;70.00;51.67;;;;;5.18;100.00;100215.31;6313734;20;3651325;-61
2023/01/14 09:20:42;;;;;;;;;75.00;57.00;;;;;5.31;100.00;100210.50;6307146;20;3640998;-59
2023/01/14 09:23:11;;;;;;;;;59.33;47.33;;;;;5.50;100.00;100213.44;6312231;20;3616934;-59
2023/01/14 09:25:41;;;;;;;;;75.33;52.33;;;;;5.26;100.00;100215.97;6311600;20;3655467;-59
2023/01/14 09:28:11;;;;;;;;;69.00;53.00;;;;;5.25;100.00;100216.03;6279138;20;2878478;-59
2023/01/14 09:30:40;;;;;;;;;73.33;55.00;;;;;5.48;100.00;100216.16;6309572;20;3639846;-59
2023/01/14 09:33:12;;;;;;;;;63.33;46.33;;;;;5.73;100.00;100210.03;6313119;20;2873333;-61
2023/01/14 09:35:41;;;;;;;;;61.33;49.00;;;;;5.60;100.00;100222.00;6313738;20;2871188;-61
2023/01/14 09:38:11;;;;;;;;;62.00;46.67;;;;;5.67;100.00;100215.56;6313504;20;2875378;-61
2023/01/14 09:40:41;;;;;;;;;69.33;49.67;;;;;5.58;100.00;100214.09;6308761;20;3637943;-61
2023/01/14 09:43:18;;;;;;;;;63.00;49.00;;;;;5.54;100.00;100223.09;6310644;20;2877328;-61
2023/01/14 09:45:59;;;;;;;;;60.33;46.33;;;;;5.14;100.00;100239.44;6314927;20;2861729;-60
2023/01/14 09:48:31;;;;;;;;;63.67;52.33;;;;;5.43;100.00;100235.88;6317051;20;3613806;-60
2023/01/14 09:51:35;;;;;;;;;59.33;46.67;;;;;5.26;100.00;100234.59;6315019;20;3608598;-60
2023/01/14 09:54:28;;;;;;;;;53.50;42.50;;;;;5.27;100.00;100225.72;6318088;20;2852501;-61
2023/01/14 09:58:01;;;;;;;;;61.33;48.00;;;;;5.58;100.00;100223.84;6285827;20;2880594;-60
2023/01/14 10:01:34;;;;;;;;;64.67;51.67;;;;;5.42;100.00;100213.69;6312464;20;2871203;-61
2023/01/14 10:04:34;;;;;;;;;66.00;49.00;;;;;5.90;100.00;100209.47;6315255;20;3641957;-60
2023/01/14 10:07:06;;;;;;;;;67.33;50.67;;;;;5.89;100.00;100219.25;6317164;20;3646112;-61
2023/01/14 10:09:57;;;;;;;;;64.33;50.33;;;;;5.99;100.00;100224.31;6313688;20;3628379;-62
2023/01/14 10:12:37;;;;;;;;;55.33;42.67;;;;;6.20;100.00;100212.91;6314239;20;2859777;-61
2023/01/14 10:15:18;;;;;;;;;61.67;47.33;;;;;6.22;100.00;100199.53;6316401;20;2878932;-62
2023/01/14 10:18:22;;;;;;;;;59.67;43.33;;;;;6.58;100.00;100192.84;6315772;20;3610677;-63
2023/01/14 10:21:04;;;;;;;;;67.33;51.00;;;;;6.50;100.00;100192.28;6315596;20;3630539;-60
2023/01/14 10:23:40;;;;;;;;;66.00;49.00;;;;;6.75;100.00;100189.53;6315376;20;3640949;-64
2023/01/14 10:26:22;;;;;;;;;59.33;45.00;;;;;6.77;100.00;100190.38;6307831;20;2866055;-60
2023/01/14 10:29:08;;;;;;;;;56.00;44.33;;;;;6.52;100.00;100189.53;6317448;20;2855645;-61
2023/01/14 10:31:40;;;;;;;;;56.67;45.00;;;;;6.58;100.00;100191.97;6316488;20;3617978;-60
2023/01/14 10:34:13;;;;;;;;;55.67;40.00;;;;;6.69;100.00;100194.22;6314419;20;2863960;-60
2023/01/14 10:36:42;;;;;;;;;58.00;45.33;;;;;6.68;100.00;100195.16;6315932;20;3618072;-59
2023/01/14 10:39:13;;;;;;;;;60.00;42.00;;;;;7.02;100.00;100192.94;6314514;20;3626388;-59
2023/01/14 10:42:15;;;;;;;;;57.33;44.33;;;;;7.41;100.00;100194.13;6314515;20;3613807;-59
2023/01/14 10:44:43;;;;;;;;;55.00;45.00;;;;;7.20;100.00;100180.69;6313738;20;2853376;-58
2023/01/14 10:47:17;;;;;;;;;52.67;40.67;;;;;7.23;100.00;100188.56;6282912;20;2870238;-59
2023/01/14 10:50:21;;;;;;;;;53.50;43.00;;;;;7.45;100.00;100185.03;6315592;20;2860719;-60
2023/01/14 10:52:53;;;;;;;;;60.00;46.33;;;;;7.80;100.00;100188.94;6287347;20;2860690;-60
2023/01/14 10:55:28;;;;;;;;;56.33;42.00;;;;;7.95;100.00;100190.06;6311367;20;2854553;-60
2023/01/14 10:58:17;;;;;;;;;51.33;42.00;;;;;8.07;100.00;100186.88;6312183;20;2855579;-60
2023/01/14 11:00:51;;;;;;;;;56.67;42.00;;;;;7.89;100.00;100185.00;6312658;20;2857701;-59
2023/01/14 11:03:49;;;;;;;;;50.33;40.00;;;;;8.14;100.00;100190.16;6314581;20;3604512;-59
2023/01/14 11:06:19;;;;;;;;;55.67;40.33;;;;;7.85;100.00;100191.41;6313460;20;3625260;-60
2023/01/14 11:08:51;;;;;;;;;58.00;45.33;;;;;7.69;100.00;100184.03;6311244;20;3616908;-59
2023/01/14 11:11:38;;;;;;;;;61.33;43.00;;;;;7.73;100.00;100182.09;6313085;20;3638985;-60
2023/01/14 11:14:31;;;;;;;;;52.00;41.50;;;;;8.41;100.00;100187.25;6309023;20;2845092;-59
2023/01/14 11:16:59;;;;;;;;;52.50;42.00;;;;;8.06;99.65;100182.47;6281802;20;2866974;-59
2023/01/14 11:19:29;;;;;;;;;51.67;40.33;;;;;7.67;100.00;100177.00;6283740;20;2859750;-60
2023/01/14 11:22:01;;;;;;;;;55.00;42.67;;;;;8.20;100.00;100179.19;6312794;20;2865894;-60
2023/01/14 11:24:43;;;;;;;;;47.50;40.00;;;;;8.21;99.57;100166.69;6315331;20;2852370;-61
2023/01/14 11:27:22;;;;;;;;;53.00;42.50;;;;;8.23;99.75;100170.16;6282514;20;2856542;-59
2023/01/14 11:29:58;;;;;;;;;74.00;55.33;;;;;8.14;99.18;100156.25;6284662;20;3647226;-58
2023/01/14 11:32:37;;;;;;;;;57.00;44.00;;;;;8.05;99.55;100148.63;6315195;20;2812889;-62
2023/01/14 11:35:39;;;;;;;;;37.00;33.67;;;;;8.17;99.64;100147.22;6283801;20;2846182;-61
2023/01/14 11:38:18;;;;;;;;;54.00;41.33;;;;;8.46;100.00;100151.31;6315029;20;3605901;-62
2023/01/14 11:44:21;;;;;;;;;43.33;35.00;;;;;8.35;96.85;100156.25;6313837;20;2861733;-63
2023/01/14 11:47:15;;;;;;;;;43.33;38.67;;;;;8.57;96.87;100151.69;6313359;20;3581981;-63
2023/01/14 11:49:45;;;;;;;;;47.00;38.00;;;;;8.63;96.61;100152.34;6282099;20;2854430;-63
2023/01/14 11:52:21;;;;;;;;;50.00;37.00;;;;;8.69;96.08;100150.25;6279690;20;2858576;-64
2023/01/14 11:54:52;;;;;;;;;50.67;37.00;;;;;8.73;95.81;100150.97;6286036;20;3628354;-63
2023/01/14 11:57:22;;;;;;;;;31.00;27.00;;;;;8.41;95.17;100139.06;6313320;20;2841957;-63
2023/01/14 11:59:53;;;;;;;;;49.00;39.50;;;;;8.97;95.53;100149.81;6284695;20;2853406;-63
2023/01/14 12:02:35;;;;;;;;;38.67;35.00;;;;;9.09;93.77;100152.88;6283033;20;2845212;-63
2023/01/14 12:05:15;;;;;;;;;39.00;30.00;;;;;8.85;94.73;100153.09;6311787;20;3575487;-60
2023/01/14 12:07:56;;;;;;;;;40.00;33.00;;;;;9.21;94.08;100146.91;6274786;20;3632934;-61